Time;durP1;ratioP1;P1;durP2;ratioP2;P2;SDS_P1;SDS_P2;PMS_P1;PMS_P2;Temp;Humidity;BMP_temperature;BMP_pressure;BME280_temperature;BME280_humidity;BME280_pressure;Samples;Min_cycle;Max_cycle;Signal;HPM_P1;HPM_P2
2022/10/11 00:04:10;;;;;;;;;;;;;;;;;;10462111;28;19939;-69
2022/10/11 00:09:13;;;;;;;;;;;;;;;;;;10462840;28;19951;-70
2022/10/11 00:14:15;;;;;;;;;;;;;;;;;;10461477;28;19924;-70
2022/10/11 00:19:17;;;;;;;;;;;;;;;;;;10460568;28;19924;-69
2022/10/11 00:24:19;;;;;;;;;;;;;;;;;;10461638;28;20383;-70
2022/10/11 00:29:21;;;;;;;;;;;;;;;;;;10461876;28;19971;-69
2022/10/11 00:34:23;;;;;;;;;;;;;;;;;;10459723;28;19925;-69
2022/10/11 00:39:25;;;;;;;;;;;;;;;;;;10460086;28;19929;-69
2022/10/11 00:44:27;;;;;;;;;;;;;;;;;;10415407;28;20261;-70
2022/10/11 00:49:29;;;;;;;;;;;;;;;;;;10436323;28;19925;-69
2022/10/11 00:54:32;;;;;;;;;;;;;;;;;;10458795;28;19971;-69
2022/10/11 00:59:34;;;;;;;;;;;;;;;;;;10460108;28;19979;-69
2022/10/11 01:04:36;;;;;;;;;;;;;;;;;;10461089;28;19924;-69
2022/10/11 01:09:38;;;;;;;;;;;;;;;;;;10460715;28;19929;-69
2022/10/11 01:14:40;;;;;;;;;;;;;;;;;;10459630;28;20338;-69
2022/10/11 01:19:42;;;;;;;;;;;;;;;;;;10457992;28;19979;-69
2022/10/11 01:24:44;;;;;;;;;;;;;;;;;;10459257;28;19924;-69
2022/10/11 01:29:46;;;;;;;;;;;;;;;;;;10460223;28;19925;-69
2022/10/11 01:34:48;;;;;;;;;;;;;;;;;;10458456;28;19928;-69
2022/10/11 01:39:51;;;;;;;;;;;;;;;;;;10457304;28;20257;-69
2022/10/11 01:44:53;;;;;;;;;;;;;;;;;;10440859;28;19925;-69
2022/10/11 01:49:55;;;;;;;;;;;;;;;;;;10458953;28;19987;-69
2022/10/11 01:54:57;;;;;;;;;;;;;;;;;;10457726;28;20450;-69
2022/10/11 02:00:10;;;;;;;;;;;;;;;;;;10457212;28;20000;-68
2022/10/11 02:05:12;;;;;;;;;;;;;;;;;;10458206;28;19952;-69
2022/10/11 02:10:14;;;;;;;;;;;;;;;;;;10457912;28;19983;-69
2022/10/11 02:15:16;;;;;;;;;;;;;;;;;;10458012;28;19975;-69
2022/10/11 02:20:18;;;;;;;;;;;;;;;;;;10455404;28;19925;-69
2022/10/11 02:25:20;;;;;;;;;;;;;;;;;;10458281;28;19929;-69
2022/10/11 02:30:22;;;;;;;;;;;;;;;;;;10454632;28;19983;-69
2022/10/11 02:35:24;;;;;;;;;;;;;;;;;;10457348;28;20265;-68
2022/10/11 02:40:26;;;;;;;;;;;;;;;;;;10455218;28;19929;-69
2022/10/11 02:45:28;;;;;;;;;;;;;;;;;;10457643;28;19928;-69
2022/10/11 02:50:30;;;;;;;;;;;;;;;;;;10455736;28;19971;-68
2022/10/11 02:55:32;;;;;;;;;;;;;;;;;;10456871;28;19925;-69
2022/10/11 03:00:34;;;;;;;;;;;;;;;;;;10455438;28;19928;-69
2022/10/11 03:05:40;;;;;;;;;;;;;;;;;;10456658;28;20327;-69
2022/10/11 03:10:42;;;;;;;;;;;;;;;;;;10455733;28;20347;-69
2022/10/11 03:15:44;;;;;;;;;;;;;;;;;;10456855;28;19924;-68
2022/10/11 03:20:46;;;;;;;;;;;;;;;;;;10454287;28;20368;-68
2022/10/11 03:25:48;;;;;;;;;;;;;;;;;;10439312;28;19924;-68
2022/10/11 03:30:50;;;;;;;;;;;;;;;;;;10457466;28;20330;-68
2022/10/11 03:35:52;;;;;;;;;;;;;;;;;;10464107;28;19978;-68
2022/10/11 03:40:54;;;;;;;;;;;;;;;;;;10462279;28;19924;-69
2022/10/11 03:45:56;;;;;;;;;;;;;;;;;;10463845;28;19925;-68
2022/10/11 03:50:58;;;;;;;;;;;;;;;;;;10463444;28;19928;-68
2022/10/11 03:56:00;;;;;;;;;;;;;;;;;;10463508;28;19925;-68
2022/10/11 04:01:08;;;;;;;;;;;;;;;;;;10438789;28;19925;-68
2022/10/11 04:06:10;;;;;;;;;;;;;;;;;;10422614;28;19929;-68
2022/10/11 04:11:12;;;;;;;;;;;;;;;;;;10448060;28;19979;-68
2022/10/11 04:16:14;;;;;;;;;;;;;;;;;;10463084;28;19978;-68
2022/10/11 04:21:16;;;;;;;;;;;;;;;;;;10460012;28;19925;-68
2022/10/11 04:26:18;;;;;;;;;;;;;;;;;;10462474;28;19933;-68
2022/10/11 04:31:21;;;;;;;;;;;;;;;;;;10459119;28;19924;-68
2022/10/11 04:36:23;;;;;;;;;;;;;;;;;;10462549;28;19971;-68
2022/10/11 04:41:25;;;;;;;;;;;;;;;;;;10457618;28;19993;-68
2022/10/11 04:46:27;;;;;;;;;;;;;;;;;;10462253;28;19929;-68
2022/10/11 04:51:29;;;;;;;;;;;;;;;;;;10460044;28;20349;-68
2022/10/11 04:56:32;;;;;;;;;;;;;;;;;;10461795;28;19925;-68
2022/10/11 05:01:34;;;;;;;;;;;;;;;;;;10459540;28;19925;-68
2022/10/11 05:06:36;;;;;;;;;;;;;;;;;;10460764;28;19976;-68
2022/10/11 05:11:38;;;;;;;;;;;;;;;;;;10460224;28;19929;-68
2022/10/11 05:16:40;;;;;;;;;;;;;;;;;;10460662;28;20368;-68
2022/10/11 05:21:42;;;;;;;;;;;;;;;;;;10457246;28;19925;-68
2022/10/11 05:26:44;;;;;;;;;;;;;;;;;;10459968;28;19925;-68
2022/10/11 05:31:46;;;;;;;;;;;;;;;;;;10458514;28;19971;-68
2022/10/11 05:36:48;;;;;;;;;;;;;;;;;;10457438;28;19925;-68
2022/10/11 05:41:51;;;;;;;;;;;;;;;;;;10456619;28;19925;-68
2022/10/11 05:46:53;;;;;;;;;;;;;;;;;;10459142;28;19986;-67
2022/10/11 05:51:55;;;;;;;;;;;;;;;;;;10408793;28;19925;-68
2022/10/11 05:56:57;;;;;;;;;;;;;;;;;;10416572;28;20385;-68
2022/10/11 06:01:59;;;;;;;;;;;;;;;;;;10451472;28;20299;-68
2022/10/11 06:07:01;;;;;;;;;;;;;;;;;;10458971;28;19925;-68
2022/10/11 06:12:03;;;;;;;;;;;;;;;;;;10457939;28;19986;-68
2022/10/11 06:17:05;;;;;;;;;;;;;;;;;;10455369;28;20364;-68
2022/10/11 06:22:07;;;;;;;;;;;;;;;;;;10455337;28;19925;-68
2022/10/11 06:27:09;;;;;;;;;;;;;;;;;;10455411;28;20372;-68
2022/10/11 06:32:14;;;;;;;;;;;;;;;;;;10455327;28;19925;-68
2022/10/11 06:37:16;;;;;;;;;;;;;;;;;;10457393;28;19974;-68
2022/10/11 06:42:18;;;;;;;;;;;;;;;;;;10455053;28;19978;-68
2022/10/11 06:47:20;;;;;;;;;;;;;;;;;;10457084;28;20334;-68
2022/10/11 06:52:22;;;;;;;;;;;;;;;;;;10455936;28;20330;-68
2022/10/11 06:57:24;;;;;;;;;;;;;;;;;;10457182;28;19925;-68
2022/10/11 07:02:26;;;;;;;;;;;;;;;;;;10452513;28;19925;-68
2022/10/11 07:07:28;;;;;;;;;;;;;;;;;;10455720;28;19925;-68
2022/10/11 07:12:30;;;;;;;;;;;;;;;;;;10454473;28;19971;-68
2022/10/11 07:17:32;;;;;;;;;;;;;;;;;;10456623;28;19925;-68
2022/10/11 07:22:34;;;;;;;;;;;;;;;;;;10437281;28;19928;-68
2022/10/11 07:27:37;;;;;;;;;;;;;;;;;;10456322;28;20446;-68
2022/10/11 07:32:39;;;;;;;;;;;;;;;;;;10456580;28;19975;-68
2022/10/11 07:37:41;;;;;;;;;;;;;;;;;;10451535;28;19925;-69
2022/10/11 07:42:43;;;;;;;;;;;;;;;;;;10452406;28;19933;-69
2022/10/11 07:47:45;;;;;;;;;;;;;;;;;;10455010;28;19924;-69
2022/10/11 07:52:47;;;;;;;;;;;;;;;;;;10455622;28;19948;-69
2022/10/11 07:57:49;;;;;;;;;;;;;;;;;;10456407;28;19974;-69
2022/10/11 08:02:51;;;;;;;;;;;;;;;;;;10455516;28;20360;-69
2022/10/11 08:07:53;;;;;;;;;;;;;;;;;;10455532;28;19925;-69
2022/10/11 08:12:55;;;;;;;;;;;;;;;;;;10455848;28;19925;-69
2022/10/11 08:18:02;;;;;;;;;;;;;;;;;;10458693;28;19925;-69
2022/10/11 08:23:05;;;;;;;;;;;;;;;;;;10463184;28;19925;-69
2022/10/11 08:28:07;;;;;;;;;;;;;;;;;;10462955;28;19974;-70
2022/10/11 08:33:09;;;;;;;;;;;;;;;;;;10462684;28;19935;-70
2022/10/11 08:38:11;;;;;;;;;;;;;;;;;;10462538;28;19925;-70
2022/10/11 08:43:13;;;;;;;;;;;;;;;;;;10461695;28;20257;-70
2022/10/11 08:48:15;;;;;;;;;;;;;;;;;;10461506;28;19991;-70
2022/10/11 08:53:17;;;;;;;;;;;;;;;;;;10444264;28;19929;-70
2022/10/11 08:58:19;;;;;;;;;;;;;;;;;;10462148;28;19955;-70
2022/10/11 09:03:21;;;;;;;;;;;;;;;;;;10460955;28;19951;-70
2022/10/11 09:08:23;;;;;;;;;;;;;;;;;;10461416;28;19932;-70
2022/10/11 09:13:30;;;;;;;;;;;;;;;;;;10460539;28;19971;-70
2022/10/11 09:18:32;;;;;;;;;;;;;;;;;;10460359;28;19924;-69
2022/10/11 09:23:34;;;;;;;;;;;;;;;;;;10460822;28;19925;-69
2022/10/11 09:28:36;;;;;;;;;;;;;;;;;;10459693;28;19928;-69
2022/10/11 09:33:38;;;;;;;;;;;;;;;;;;10494445;23;19924;-62
2022/10/11 09:38:40;;;;;;;;;;;;;;;;;;10501630;28;19982;-63
2022/10/11 09:43:42;;;;;;;;;;;;;;;;;;10501340;28;19924;-63
2022/10/11 09:48:44;;;;;;;;;;;;;;;;;;10500642;28;20368;-63
2022/10/11 09:53:46;;;;;;;;;;;;;;;;;;10500239;28;19925;-62
2022/10/11 09:58:48;;;;;;;;;;;;;;;;;;10483077;28;19928;-63
2022/10/11 10:03:51;;;;;;;;;;;;;;;;;;10499874;28;20425;-62
2022/10/11 10:08:54;;;;;;;;;;;;;;;;;;10500270;28;19978;-63
2022/10/11 10:13:56;;;;;;;;;;;;;;;;;;10499363;28;20375;-63
2022/10/11 10:18:58;;;;;;;;;;;;;;;;;;10499929;28;19974;-63
2022/10/11 10:24:02;;;;;;;;;;;;;;;;;;10499115;28;19928;-63
2022/10/11 10:29:04;;;;;;;;;;;;;;;;;;10499545;28;19928;-64
2022/10/11 10:34:07;;;;;;;;;;;;;;;;;;10490745;28;20375;-63
2022/10/11 10:39:09;;;;;;;;;;;;;;;;;;10497153;28;19924;-63
2022/10/11 10:44:11;;;;;;;;;;;;;;;;;;10497744;28;20322;-63
2022/10/11 10:49:13;;;;;;;;;;;;;;;;;;10499131;28;19924;-64
2022/10/11 10:54:35;;;;;;;;;;;;;;;;;;10497127;28;20431;-64
2022/10/11 10:59:37;;;;;;;;;;;;;;;;;;10496230;28;20421;-64
2022/10/11 11:04:39;;;;;;;;;;;;;;;;;;10497817;28;19925;-64
2022/10/11 11:09:41;;;;;;;;;;;;;;;;;;10497024;28;19933;-64
2022/10/11 11:14:43;;;;;;;;;;;;;;;;;;10497807;28;19978;-64
2022/10/11 11:19:45;;;;;;;;;;;;;;;;;;10497840;28;19924;-64
2022/10/11 11:24:48;;;;;;;;;;;;;;;;;;10498287;28;19924;-64
2022/10/11 11:29:50;;;;;;;;;;;;;;;;;;10497711;28;20271;-64
2022/10/11 11:34:57;;;;;;;;;;;;;;;;;;10497539;28;20335;-64
2022/10/11 11:39:59;;;;;;;;;;;;;;;;;;10498405;28;19925;-64
2022/10/11 11:45:01;;;;;;;;;;;;;;;;;;10497416;28;19929;-64
2022/10/11 11:50:03;;;;;;;;;;;;;;;;;;10498220;28;19924;-64
2022/10/11 11:55:05;;;;;;;;;;;;;;;;;;10504976;28;20368;-64
2022/10/11 12:00:07;;;;;;;;;;;;;;;;;;10504836;28;20325;-64
2022/10/11 12:05:09;;;;;;;;;;;;;;;;;;10505285;28;19975;-64
2022/10/11 12:10:11;;;;;;;;;;;;;;;;;;10504481;28;20350;-64
2022/10/11 12:15:13;;;;;;;;;;;;;;;;;;10505409;28;19928;-64
2022/10/11 12:20:15;;;;;;;;;;;;;;;;;;10504074;28;20368;-64
2022/10/11 12:25:17;;;;;;;;;;;;;;;;;;10504513;28;19971;-64
2022/10/11 12:30:19;;;;;;;;;;;;;;;;;;10503680;28;20441;-64
2022/10/11 12:35:22;;;;;;;;;;;;;;;;;;10503937;28;19929;-64
2022/10/11 12:40:24;;;;;;;;;;;;;;;;;;10486157;28;19924;-64
2022/10/11 12:45:26;;;;;;;;;;;;;;;;;;10503002;28;20261;-64
2022/10/11 12:50:28;;;;;;;;;;;;;;;;;;10502835;28;19924;-64
2022/10/11 12:55:30;;;;;;;;;;;;;;;;;;10485502;28;19970;-64
2022/10/11 13:00:32;;;;;;;;;;;;;;;;;;10502547;28;19932;-64
2022/10/11 13:05:34;;;;;;;;;;;;;;;;;;10502332;28;19928;-64
2022/10/11 13:10:36;;;;;;;;;;;;;;;;;;10502101;28;20441;-64
2022/10/11 13:15:38;;;;;;;;;;;;;;;;;;10502729;28;19978;-64
2022/10/11 13:20:40;;;;;;;;;;;;;;;;;;10501816;28;19994;-64
2022/10/11 13:25:43;;;;;;;;;;;;;;;;;;10501547;28;19950;-64
2022/10/11 13:30:45;;;;;;;;;;;;;;;;;;10501576;28;19929;-64
2022/10/11 13:35:47;;;;;;;;;;;;;;;;;;10501200;28;20321;-64
2022/10/11 13:40:49;;;;;;;;;;;;;;;;;;10501597;28;19974;-64
2022/10/11 13:45:52;;;;;;;;;;;;;;;;;;10501307;28;19935;-64
2022/10/11 13:50:55;;;;;;;;;;;;;;;;;;10500691;28;20333;-64
2022/10/11 13:55:58;;;;;;;;;;;;;;;;;;10500255;28;19925;-64
2022/10/11 14:01:00;;;;;;;;;;;;;;;;;;10500567;28;19970;-64
2022/10/11 14:06:02;;;;;;;;;;;;;;;;;;10499886;28;20011;-64
2022/10/11 14:11:04;;;;;;;;;;;;;;;;;;10500207;28;19924;-64
2022/10/11 14:16:07;;;;;;;;;;;;;;;;;;10499155;28;19931;-64
2022/10/11 14:21:10;;;;;;;;;;;;;;;;;;10499306;28;20367;-64
2022/10/11 14:26:12;;;;;;;;;;;;;;;;;;10499131;28;20502;-64
2022/10/11 14:31:19;;;;;;;;;;;;;;;;;;10482224;28;19931;-64
2022/10/11 14:36:21;;;;;;;;;;;;;;;;;;10498879;28;19924;-64
2022/10/11 14:41:24;;;;;;;;;;;;;;;;;;10499415;28;19932;-64
2022/10/11 14:46:26;;;;;;;;;;;;;;;;;;10499028;28;19924;-62
2022/10/11 14:51:28;;;;;;;;;;;;;;;;;;10498988;28;19928;-63
2022/10/11 14:56:30;;;;;;;;;;;;;;;;;;10498361;28;19928;-62
2022/10/11 15:01:32;;;;;;;;;;;;;;;;;;10498334;28;20395;-61
2022/10/11 15:06:34;;;;;;;;;;;;;;;;;;10498701;28;19925;-61
2022/10/11 15:11:37;;;;;;;;;;;;;;;;;;10498051;28;20322;-61
2022/10/11 15:16:39;;;;;;;;;;;;;;;;;;10480809;28;19924;-61
2022/10/11 15:21:41;;;;;;;;;;;;;;;;;;10497916;28;19928;-61
2022/10/11 15:26:44;;;;;;;;;;;;;;;;;;10501481;28;19950;-61
2022/10/11 15:31:48;;;;;;;;;;;;;;;;;;10503213;28;20268;-71
2022/10/11 15:36:50;;;;;;;;;;;;;;;;;;10503822;28;19924;-71
2022/10/11 15:41:52;;;;;;;;;;;;;;;;;;10505589;28;19932;-71
2022/10/11 15:46:54;;;;;;;;;;;;;;;;;;10505754;28;19924;-71
2022/10/11 15:51:56;;;;;;;;;;;;;;;;;;10503631;28;19928;-71
2022/10/11 15:56:58;;;;;;;;;;;;;;;;;;10504005;28;20363;-71
2022/10/11 16:02:00;;;;;;;;;;;;;;;;;;10505456;28;19928;-71
2022/10/11 16:07:02;;;;;;;;;;;;;;;;;;10504328;28;19982;-71
2022/10/11 16:12:04;;;;;;;;;;;;;;;;;;10508154;28;19924;-71
2022/10/11 16:17:06;;;;;;;;;;;;;;;;;;10501802;28;20334;-71
2022/10/11 16:22:08;;;;;;;;;;;;;;;;;;10503642;28;19970;-71
2022/10/11 16:27:10;;;;;;;;;;;;;;;;;;10504290;28;19924;-71
2022/10/11 16:32:16;;;;;;;;;;;;;;;;;;10503833;28;19928;-70
2022/10/11 16:37:18;;;;;;;;;;;;;;;;;;10503636;28;19925;-71
2022/10/11 16:42:20;;;;;;;;;;;;;;;;;;10543884;28;19985;-71
2022/10/11 16:47:22;;;;;;;;;;;;;;;;;;10534020;28;19928;-71
2022/10/11 16:52:24;;;;;;;;;;;;;;;;;;10500193;28;19925;-71
2022/10/11 16:57:26;;;;;;;;;;;;;;;;;;10504711;28;19979;-70
2022/10/11 17:02:28;;;;;;;;;;;;;;;;;;10494155;28;19925;-70
2022/10/11 17:07:33;;;;;;;;;;;;;;;;;;10485312;28;19925;-63
2022/10/11 17:12:37;;;;;;;;;;;;;;;;;;10501936;28;19951;-63
2022/10/11 17:17:39;;;;;;;;;;;;;;;;;;10511211;28;19929;-63
2022/10/11 17:22:41;;;;;;;;;;;;;;;;;;10497687;28;19932;-63
2022/10/11 17:27:43;;;;;;;;;;;;;;;;;;10497562;28;19925;-63
2022/10/11 17:32:45;;;;;;;;;;;;;;;;;;10500072;28;19931;-63
2022/10/11 17:37:48;;;;;;;;;;;;;;;;;;10497060;28;19929;-63
2022/10/11 17:42:50;;;;;;;;;;;;;;;;;;10495251;28;19924;-63
2022/10/11 17:47:52;;;;;;;;;;;;;;;;;;10490401;28;19974;-63
2022/10/11 17:52:54;;;;;;;;;;;;;;;;;;10499835;28;19924;-63
2022/10/11 17:57:56;;;;;;;;;;;;;;;;;;10528345;28;20321;-62
2022/10/11 18:02:58;;;;;;;;;;;;;;;;;;10466237;28;19929;-63
2022/10/11 18:08:02;;;;;;;;;;;;;;;;;;10486101;28;20305;-63
2022/10/11 18:13:04;;;;;;;;;;;;;;;;;;10495622;28;19924;-63
2022/10/11 18:18:10;;;;;;;;;;;;;;;;;;10496318;28;20375;-63
2022/10/11 18:23:12;;;;;;;;;;;;;;;;;;10495574;28;19928;-63
2022/10/11 18:28:16;;;;;;;;;;;;;;;;;;10496246;28;19978;-63
2022/10/11 18:33:18;;;;;;;;;;;;;;;;;;10494427;28;20386;-63
2022/10/11 18:38:20;;;;;;;;;;;;;;;;;;10495572;28;19936;-63
2022/10/11 18:43:22;;;;;;;;;;;;;;;;;;10494464;28;19963;-63
2022/10/11 18:48:24;;;;;;;;;;;;;;;;;;10492802;28;19986;-63
2022/10/11 18:53:26;;;;;;;;;;;;;;;;;;10493629;28;19932;-63
2022/10/11 18:58:28;;;;;;;;;;;;;;;;;;10494407;28;19924;-63
2022/10/11 19:03:31;;;;;;;;;;;;;;;;;;10494752;28;19925;-63
2022/10/11 19:08:36;;;;;;;;;;;;;;;;;;10493044;28;19936;-63
2022/10/11 19:13:38;;;;;;;;;;;;;;;;;;10497699;28;19924;-63
2022/10/11 19:18:40;;;;;;;;;;;;;;;;;;10491530;28;19928;-63
2022/10/11 19:23:45;;;;;;;;;;;;;;;;;;10497214;28;19931;-63
2022/10/11 19:28:47;;;;;;;;;;;;;;;;;;10494840;28;20321;-63
2022/10/11 19:33:49;;;;;;;;;;;;;;;;;;10492765;28;19925;-63
2022/10/11 19:38:55;;;;;;;;;;;;;;;;;;10495216;28;19924;-63
2022/10/11 19:43:57;;;;;;;;;;;;;;;;;;10496335;28;19924;-63
2022/10/11 19:49:00;;;;;;;;;;;;;;;;;;10495150;28;19928;-63
2022/10/11 19:54:02;;;;;;;;;;;;;;;;;;10496311;28;19932;-63
2022/10/11 19:59:07;;;;;;;;;;;;;;;;;;10492736;28;19924;-63
2022/10/11 20:04:09;;;;;;;;;;;;;;;;;;10492228;28;20276;-63
2022/10/11 20:09:23;;;;;;;;;;;;;;;;;;10493703;28;20329;-63
2022/10/11 20:14:30;;;;;;;;;;;;;;;;;;10495271;28;19929;-63
2022/10/11 20:19:32;;;;;;;;;;;;;;;;;;10501121;28;19936;-63
2022/10/11 20:24:34;;;;;;;;;;;;;;;;;;10500379;28;19932;-63
2022/10/11 20:29:36;;;;;;;;;;;;;;;;;;10503218;28;19978;-63
2022/10/11 20:34:38;;;;;;;;;;;;;;;;;;10479365;28;20334;-63
2022/10/11 20:39:40;;;;;;;;;;;;;;;;;;10502784;28;19970;-63
2022/10/11 20:44:43;;;;;;;;;;;;;;;;;;10501356;28;19932;-63
2022/10/11 20:49:45;;;;;;;;;;;;;;;;;;10501999;28;19924;-63
2022/10/11 20:54:47;;;;;;;;;;;;;;;;;;10498203;28;19925;-63
2022/10/11 20:59:49;;;;;;;;;;;;;;;;;;10500791;28;19925;-63
2022/10/11 21:04:51;;;;;;;;;;;;;;;;;;10500421;28;19928;-62
2022/10/11 21:09:53;;;;;;;;;;;;;;;;;;10497572;28;19928;-63
2022/10/11 21:14:55;;;;;;;;;;;;;;;;;;10499891;28;19925;-63
2022/10/11 21:19:59;;;;;;;;;;;;;;;;;;10500771;28;19925;-63
2022/10/11 21:25:01;;;;;;;;;;;;;;;;;;10500653;28;19970;-62
2022/10/11 21:30:03;;;;;;;;;;;;;;;;;;10502088;28;19932;-63
2022/10/11 21:35:05;;;;;;;;;;;;;;;;;;10500381;28;19924;-62
2022/10/11 21:40:07;;;;;;;;;;;;;;;;;;10483963;28;19925;-62
2022/10/11 21:50:15;;;;;;;;;;;;;;;;;;10375542;28;19971;-63
2022/10/11 21:55:17;;;;;;;;;;;;;;;;;;10376955;28;19987;-62
2022/10/11 22:00:20;;;;;;;;;;;;;;;;;;10376622;28;19926;-63
2022/10/11 22:05:23;;;;;;;;;;;;;;;;;;10376240;28;19972;-63
2022/10/11 22:10:25;;;;;;;;;;;;;;;;;;10377059;28;19925;-63
2022/10/11 22:15:27;;;;;;;;;;;;;;;;;;10375476;28;20376;-63
2022/10/11 22:20:29;;;;;;;;;;;;;;;;;;10375171;28;20394;-62
2022/10/11 22:25:31;;;;;;;;;;;;;;;;;;10377166;28;19929;-63
2022/10/11 22:30:33;;;;;;;;;;;;;;;;;;10376408;28;19925;-63
2022/10/11 22:35:35;;;;;;;;;;;;;;;;;;10374673;28;19952;-63
2022/10/11 22:40:38;;;;;;;;;;;;;;;;;;10373884;28;19925;-63
2022/10/11 22:45:40;;;;;;;;;;;;;;;;;;10378049;28;20450;-62
2022/10/11 22:50:42;;;;;;;;;;;;;;;;;;10419277;28;19925;-63
2022/10/11 22:55:44;;;;;;;;;;;;;;;;;;10435558;28;19956;-63
2022/10/11 23:00:46;;;;;;;;;;;;;;;;;;10413537;28;19987;-63
2022/10/11 23:05:48;;;;;;;;;;;;;;;;;;10416255;28;19929;-62
2022/10/11 23:10:50;;;;;;;;;;;;;;;;;;10415354;28;19925;-63
2022/10/11 23:15:52;;;;;;;;;;;;;;;;;;10415966;28;19964;-63
2022/10/11 23:20:54;;;;;;;;;;;;;;;;;;10413955;28;19929;-63
2022/10/11 23:25:56;;;;;;;;;;;;;;;;;;10415138;28;19925;-63
2022/10/11 23:30:58;;;;;;;;;;;;;;;;;;10412627;28;19925;-63
2022/10/11 23:36:00;;;;;;;;;;;;;;;;;;10414594;28;19925;-62
2022/10/11 23:41:02;;;;;;;;;;;;;;;;;;10413518;28;19972;-62
2022/10/11 23:46:04;;;;;;;;;;;;;;;;;;10414982;28;20383;-63
2022/10/11 23:51:06;;;;;;;;;;;;;;;;;;10421797;28;20360;-63
2022/10/11 23:56:08;;;;;;;;;;;;;;;;;;10423159;28;19952;-62
